createdAt,value
2022-09-28T00:00:03.285Z,98631.60
2022-09-28T00:03:07.027Z,98630.40
2022-09-28T00:05:40.923Z,98632.20
2022-09-28T00:08:15.146Z,98629.20
2022-09-28T00:10:57.722Z,98626.40
2022-09-28T00:13:33.010Z,98624.00
2022-09-28T00:16:12.653Z,98627.80
2022-09-28T00:18:47.528Z,98619.80
2022-09-28T00:21:26.977Z,98624.00
2022-09-28T00:24:16.244Z,98626.20
2022-09-28T00:26:54.608Z,98620.80
2022-09-28T00:29:31.694Z,98619.80
2022-09-28T00:32:08.981Z,98620.20
2022-09-28T00:34:46.107Z,98609.60
2022-09-28T00:37:21.476Z,98603.60
2022-09-28T00:39:55.540Z,98601.80
2022-09-28T00:42:30.335Z,98602.60
2022-09-28T00:45:04.567Z,98592.00
2022-09-28T00:47:52.032Z,98596.00
2022-09-28T00:50:33.321Z,98596.60
2022-09-28T00:53:18.457Z,98595.60
2022-09-28T00:55:56.541Z,98597.20
2022-09-28T00:58:34.402Z,98602.00
2022-09-28T01:01:09.103Z,98604.40
2022-09-28T01:03:45.579Z,98611.20
2022-09-28T01:06:24.542Z,98603.40
2022-09-28T01:09:03.249Z,98607.00
2022-09-28T01:11:40.858Z,98609.20
2022-09-28T01:14:16.914Z,98605.40
2022-09-28T01:17:02.672Z,98602.20
2022-09-28T01:20:26.863Z,98604.80
2022-09-28T01:23:46.772Z,98605.80
2022-09-28T01:26:56.397Z,98596.80
2022-09-28T01:29:49.327Z,98599.00
2022-09-28T01:32:34.744Z,98600.60
2022-09-28T01:35:16.215Z,98597.40
2022-09-28T01:37:54.079Z,98597.80
2022-09-28T01:40:31.507Z,98596.20
2022-09-28T01:43:12.999Z,98594.60
2022-09-28T01:45:53.968Z,98589.20
2022-09-28T01:48:36.587Z,98587.80
2022-09-28T01:51:17.757Z,98590.80
2022-09-28T01:53:58.849Z,98591.60
2022-09-28T01:56:40.091Z,98592.00
2022-09-28T01:59:20.481Z,98592.80
2022-09-28T02:02:02.344Z,98594.80
2022-09-28T02:04:41.903Z,98595.40
2022-09-28T02:07:21.850Z,98600.00
2022-09-28T02:10:00.014Z,98599.40
2022-09-28T02:12:41.910Z,98603.80
2022-09-28T02:15:22.772Z,98599.40
2022-09-28T02:17:57.725Z,98599.20
2022-09-28T02:20:35.743Z,98592.80
2022-09-28T02:23:11.286Z,98593.20
2022-09-28T02:25:52.870Z,98594.20
2022-09-28T02:28:26.703Z,98594.40
2022-09-28T02:31:00.441Z,98594.60
2022-09-28T02:33:39.979Z,98594.80
2022-09-28T02:36:14.758Z,98599.40
2022-09-28T02:38:49.581Z,98599.20
2022-09-28T02:41:44.050Z,98596.00
2022-09-28T02:44:40.688Z,98598.40
2022-09-28T02:47:33.190Z,98595.40
2022-09-28T02:50:18.573Z,98592.00
2022-09-28T02:53:23.413Z,98594.80
2022-09-28T02:56:18.712Z,98598.80
2022-09-28T02:59:06.687Z,98595.40
2022-09-28T03:01:50.951Z,98599.40
2022-09-28T03:04:38.895Z,98603.20
2022-09-28T03:07:25.585Z,98599.80
2022-09-28T03:10:10.008Z,98598.20
2022-09-28T03:12:46.248Z,98602.20
2022-09-28T03:15:27.852Z,98606.80
2022-09-28T03:18:02.197Z,98596.00
2022-09-28T03:20:36.556Z,98595.40
2022-09-28T03:23:26.623Z,98598.60
2022-09-28T03:26:01.281Z,98598.00
2022-09-28T03:28:36.257Z,98604.40
2022-09-28T03:31:11.897Z,98600.00
2022-09-28T03:33:45.754Z,98592.60
2022-09-28T03:36:19.446Z,98597.00
2022-09-28T03:38:55.227Z,98595.20
2022-09-28T03:41:29.775Z,98597.60
2022-09-28T03:44:04.220Z,98602.20
2022-09-28T03:46:38.427Z,98597.60
2022-09-28T03:49:15.060Z,98591.40
2022-09-28T03:51:49.817Z,98591.60
2022-09-28T03:54:23.399Z,98586.20
2022-09-28T03:56:57.007Z,98579.80
2022-09-28T03:59:31.034Z,98580.20
2022-09-28T04:02:05.046Z,98581.80
2022-09-28T04:04:39.166Z,98575.60
2022-09-28T04:07:12.937Z,98579.20
2022-09-28T04:09:46.692Z,98580.00
2022-09-28T04:12:20.454Z,98576.00
2022-09-28T04:14:54.805Z,98584.20
2022-09-28T04:17:28.992Z,98586.80
2022-09-28T04:20:04.280Z,98589.60
2022-09-28T04:22:52.414Z,98582.20
2022-09-28T04:25:26.254Z,98580.20
2022-09-28T04:28:17.691Z,98581.60
2022-09-28T04:30:52.172Z,98577.80
2022-09-28T04:33:26.232Z,98575.80
2022-09-28T04:36:00.721Z,98566.40
2022-09-28T04:38:51.809Z,98569.20
2022-09-28T04:41:27.666Z,98567.60
2022-09-28T04:44:01.500Z,98562.80
2022-09-28T04:46:35.835Z,98567.00
2022-09-28T04:49:29.992Z,98565.00
2022-09-28T04:52:18.363Z,98567.60
2022-09-28T04:54:55.178Z,98567.20
2022-09-28T04:57:29.661Z,98564.80
2022-09-28T05:00:04.070Z,98564.20
2022-09-28T05:02:39.756Z,98566.00
2022-09-28T05:05:36.772Z,98568.80
2022-09-28T05:08:38.384Z,98569.60
2022-09-28T05:11:15.225Z,98568.00
2022-09-28T05:13:50.619Z,98569.20
2022-09-28T05:16:25.700Z,98566.00
2022-09-28T05:19:20.044Z,98562.60
2022-09-28T05:21:54.308Z,98553.80
2022-09-28T05:24:28.094Z,98554.80
2022-09-28T05:27:01.997Z,98560.20
2022-09-28T05:29:36.966Z,98556.00
2022-09-28T05:32:49.407Z,98559.80
2022-09-28T05:35:45.166Z,98555.40
2022-09-28T05:38:18.963Z,98553.40
2022-09-28T05:40:52.865Z,98551.40
2022-09-28T05:43:26.929Z,98546.80
2022-09-28T05:46:01.769Z,98548.40
2022-09-28T05:48:37.292Z,98544.80
2022-09-28T05:51:12.112Z,98546.00
2022-09-28T05:53:45.942Z,98548.00
2022-09-28T05:56:20.420Z,98545.00
2022-09-28T05:58:56.767Z,98545.00
2022-09-28T06:01:32.125Z,98541.60
2022-09-28T06:04:09.100Z,98538.60
2022-09-28T06:06:43.575Z,98535.00
2022-09-28T06:09:17.750Z,98532.40
2022-09-28T06:12:12.379Z,98526.60
2022-09-28T06:14:50.448Z,98525.80
2022-09-28T06:17:24.641Z,98522.80
2022-09-28T06:20:18.529Z,98518.00
2022-09-28T06:23:03.703Z,98521.00
2022-09-28T06:25:38.503Z,98517.80
2022-09-28T06:28:16.363Z,98515.00
2022-09-28T06:30:50.254Z,98515.40
2022-09-28T06:33:26.472Z,98517.40
2022-09-28T06:36:01.795Z,98512.80
2022-09-28T06:38:35.854Z,98517.00
2022-09-28T06:41:12.134Z,98522.20
2022-09-28T06:43:48.725Z,98517.00
2022-09-28T06:47:01.307Z,98510.60
2022-09-28T06:49:51.416Z,98512.60
2022-09-28T06:52:34.605Z,98500.20
2022-09-28T06:55:14.239Z,98504.40
2022-09-28T06:57:58.933Z,98503.80
2022-09-28T07:00:35.560Z,98504.00
2022-09-28T07:03:12.637Z,98498.00
2022-09-28T07:06:08.215Z,98486.60
2022-09-28T07:09:26.500Z,98487.00
2022-09-28T07:12:26.229Z,98482.80
2022-09-28T07:15:03.934Z,98480.40
2022-09-28T07:17:52.622Z,98477.20
2022-09-28T07:20:36.814Z,98475.80
2022-09-28T07:23:19.380Z,98475.40
2022-09-28T07:26:13.291Z,98476.40
2022-09-28T07:29:04.186Z,98480.00
2022-09-28T07:44:20.322Z,98484.20
2022-09-28T07:46:57.687Z,98489.40
2022-09-28T07:49:47.432Z,98488.40
2022-09-28T07:52:48.176Z,98485.20
2022-09-28T07:55:31.965Z,98479.80
2022-09-28T07:58:19.433Z,98474.20
2022-09-28T08:01:16.807Z,98471.40
2022-09-28T08:03:56.458Z,98473.00
2022-09-28T08:06:33.085Z,98475.60
2022-09-28T08:09:11.014Z,98474.80
2022-09-28T08:12:07.859Z,98468.60
2022-09-28T08:14:47.872Z,98471.60
2022-09-28T08:17:40.435Z,98467.00
2022-09-28T08:20:33.298Z,98458.00
2022-09-28T08:23:10.234Z,98462.40
2022-09-28T08:25:50.273Z,98462.20
2022-09-28T08:28:26.291Z,98462.20
2022-09-28T08:31:07.701Z,98462.60
2022-09-28T08:34:02.027Z,98460.00
2022-09-28T08:36:57.593Z,98463.20
2022-09-28T08:40:00.555Z,98453.80
2022-09-28T08:43:02.444Z,98448.00
2022-09-28T08:45:58.192Z,98442.60
2022-09-28T08:49:20.545Z,98439.40
2022-09-28T08:52:24.163Z,98434.20
2022-09-28T08:55:20.404Z,98435.80
2022-09-28T08:58:02.305Z,98430.00
2022-09-28T09:00:48.791Z,98439.20
2022-09-28T09:03:31.452Z,98438.60
2022-09-28T09:06:37.478Z,98440.40
2022-09-28T09:09:49.157Z,98436.20
2022-09-28T09:12:36.933Z,98433.00
2022-09-28T09:15:40.345Z,98429.20
2022-09-28T09:18:36.382Z,98423.20
2022-09-28T09:21:43.614Z,98423.20
2022-09-28T09:24:45.707Z,98423.80
2022-09-28T09:27:55.178Z,98422.60
2022-09-28T09:30:38.416Z,98413.80
2022-09-28T09:33:47.800Z,98400.40
2022-09-28T09:37:08.776Z,98404.60
2022-09-28T09:40:35.649Z,98404.20
2022-09-28T09:44:36.408Z,98409.60
2022-09-28T09:47:37.080Z,98408.60
2022-09-28T09:50:34.724Z,98402.00
2022-09-28T09:53:21.493Z,98405.60
2022-09-28T09:56:01.661Z,98408.80
2022-09-28T09:59:10.414Z,98405.80
2022-09-28T10:02:02.861Z,98406.00
2022-09-28T10:04:51.877Z,98413.60
2022-09-28T10:07:41.387Z,98413.60
2022-09-28T10:10:26.265Z,98405.80
2022-09-28T10:13:04.813Z,98403.80
2022-09-28T10:15:42.682Z,98400.20
2022-09-28T10:18:40.739Z,98403.20
2022-09-28T10:21:38.048Z,98407.20
2022-09-28T10:24:40.167Z,98404.80
2022-09-28T10:27:20.531Z,98403.80
2022-09-28T10:30:00.807Z,98404.00
2022-09-28T10:32:43.880Z,98409.00
2022-09-28T10:35:28.356Z,98408.20
2022-09-28T10:38:18.711Z,98409.40
2022-09-28T10:41:13.638Z,98405.60
2022-09-28T10:44:07.267Z,98410.80
2022-09-28T10:46:46.021Z,98417.60
2022-09-28T10:49:26.457Z,98414.60
2022-09-28T10:52:04.733Z,98412.00
2022-09-28T10:54:55.655Z,98414.60
2022-09-28T10:57:42.181Z,98420.60
2022-09-28T11:00:39.665Z,98416.80
2022-09-28T11:03:34.806Z,98416.40
2022-09-28T11:06:13.959Z,98416.40
2022-09-28T11:08:53.471Z,98423.80
2022-09-28T11:11:29.940Z,98434.80
2022-09-28T11:14:26.411Z,98453.40
2022-09-28T11:17:29.360Z,98468.00
2022-09-28T11:20:27.477Z,98468.20
2022-09-28T11:23:18.157Z,98466.80
2022-09-28T11:26:06.532Z,98468.60
2022-09-28T11:28:43.310Z,98468.00
2022-09-28T11:31:31.864Z,98479.40
2022-09-28T11:34:36.425Z,98471.20
2022-09-28T11:37:58.595Z,98462.60
2022-09-28T11:41:11.124Z,98451.20
2022-09-28T11:44:18.392Z,98462.80
2022-09-28T11:47:11.318Z,98465.00
2022-09-28T11:49:53.240Z,98466.80
2022-09-28T11:52:37.801Z,98464.40
2022-09-28T11:55:28.224Z,98462.80
2022-09-28T11:58:11.919Z,98455.40
2022-09-28T12:00:52.291Z,98460.20
2022-09-28T12:03:37.453Z,98465.60
2022-09-28T12:06:17.511Z,98464.80
2022-09-28T12:09:03.373Z,98463.80
2022-09-28T12:12:16.740Z,98450.80
2022-09-28T12:14:57.349Z,98452.40
2022-09-28T12:17:38.474Z,98451.40
2022-09-28T12:20:24.463Z,98446.20
2022-09-28T12:23:12.694Z,98443.20
2022-09-28T12:25:55.087Z,98443.80
2022-09-28T12:28:40.675Z,98439.40
2022-09-28T12:31:23.077Z,98434.80
2022-09-28T12:33:57.553Z,98433.00
2022-09-28T12:36:49.024Z,98429.60
2022-09-28T12:39:59.811Z,98427.40
2022-09-28T12:43:13.742Z,98424.80
2022-09-28T12:46:21.083Z,98424.40
2022-09-28T12:52:38.617Z,98417.00
2022-09-28T12:55:29.843Z,98417.00
2022-09-28T12:58:25.924Z,98413.20
2022-09-28T13:01:17.310Z,98403.80
2022-09-28T13:04:13.525Z,98395.40
2022-09-28T13:07:02.060Z,98389.80
2022-09-28T13:09:54.438Z,98380.00
2022-09-28T13:12:49.132Z,98372.00
2022-09-28T13:15:45.240Z,98380.60
2022-09-28T13:18:32.935Z,98381.40
2022-09-28T13:21:30.790Z,98372.20
2022-09-28T13:24:31.032Z,98375.20
2022-09-28T13:27:17.360Z,98372.80
2022-09-28T13:29:55.727Z,98375.60
2022-09-28T13:32:33.991Z,98374.00
2022-09-28T13:35:14.029Z,98378.60
2022-09-28T13:37:48.937Z,98382.40
2022-09-28T13:41:12.091Z,98376.20
2022-09-28T13:44:28.585Z,98381.20
2022-09-28T13:47:29.737Z,98380.80
2022-09-28T13:50:26.593Z,98377.00
2022-09-28T13:53:19.259Z,98381.40
2022-09-28T13:56:05.931Z,98383.20
2022-09-28T13:58:49.569Z,98377.20
2022-09-28T14:01:31.184Z,98375.00
2022-09-28T14:04:22.202Z,98375.20
2022-09-28T14:07:10.779Z,98379.60
2022-09-28T14:09:50.424Z,98380.00
2022-09-28T14:12:52.434Z,98373.80
2022-09-28T14:15:46.048Z,98372.40
2022-09-28T14:18:33.086Z,98371.80
2022-09-28T14:22:08.321Z,98372.20
2022-09-28T14:25:07.730Z,98368.40
2022-09-28T14:28:18.517Z,98354.40
2022-09-28T14:30:59.707Z,98342.80
2022-09-28T14:33:39.327Z,98353.60
2022-09-28T14:36:51.273Z,98354.60
2022-09-28T14:39:52.462Z,98363.40
2022-09-28T14:42:29.247Z,98362.40
2022-09-28T14:45:40.406Z,98366.80
2022-09-28T14:48:43.693Z,98363.60
2022-09-28T14:52:03.134Z,98357.80
2022-09-28T14:54:55.274Z,98355.00
2022-09-28T14:57:34.296Z,98357.60
2022-09-28T15:00:22.477Z,98356.00
2022-09-28T15:03:12.019Z,98353.80
2022-09-28T15:05:50.330Z,98348.60
2022-09-28T15:08:37.013Z,98345.20
2022-09-28T15:11:20.948Z,98353.60
2022-09-28T15:14:11.726Z,98349.40
2022-09-28T15:16:47.655Z,98340.60
2022-09-28T15:19:37.998Z,98339.80
2022-09-28T15:22:22.104Z,98335.60
2022-09-28T15:25:03.193Z,98327.20
2022-09-28T15:27:43.134Z,98317.20
2022-09-28T15:30:33.370Z,98305.00
2022-09-28T15:33:39.336Z,98305.40
2022-09-28T15:36:20.314Z,98298.40
2022-09-28T15:39:01.673Z,98289.60
2022-09-28T15:41:41.803Z,98285.00
2022-09-28T15:44:35.433Z,98283.00
2022-09-28T15:47:25.632Z,98290.80
2022-09-28T15:50:02.986Z,98295.00
2022-09-28T15:52:44.689Z,98302.00
2022-09-28T15:55:26.283Z,98297.60
2022-09-28T15:58:19.951Z,98309.20
2022-09-28T16:01:36.406Z,98327.40
2022-09-28T16:04:48.189Z,98342.80
2022-09-28T16:07:56.395Z,98354.20
2022-09-28T16:10:38.118Z,98366.00
2022-09-28T16:13:24.094Z,98374.60
2022-09-28T16:16:03.473Z,98380.00
2022-09-28T16:18:48.211Z,98384.60
2022-09-28T16:21:40.075Z,98395.80
2022-09-28T16:24:26.211Z,98406.20
2022-09-28T16:27:09.926Z,98401.20
2022-09-28T16:29:45.280Z,98405.60
2022-09-28T16:32:49.221Z,98407.40
2022-09-28T16:35:30.753Z,98409.00
2022-09-28T16:38:13.883Z,98412.40
2022-09-28T16:40:50.567Z,98424.00
2022-09-28T16:43:28.783Z,98424.60
2022-09-28T16:46:09.809Z,98427.80
2022-09-28T16:48:49.160Z,98427.80
2022-09-28T16:51:25.174Z,98421.20
2022-09-28T16:54:29.849Z,98422.80
2022-09-28T16:57:05.670Z,98424.80
2022-09-28T16:59:40.115Z,98428.40
2022-09-28T17:02:45.901Z,98425.00
2022-09-28T17:05:22.082Z,98431.80
2022-09-28T17:08:03.999Z,98434.20
2022-09-28T17:11:12.397Z,98439.20
2022-09-28T17:13:39.585Z,98449.40
2022-09-28T17:19:24.000Z,98459.40
2022-09-28T17:21:57.888Z,98458.00
2022-09-28T17:24:31.849Z,98464.00
2022-09-28T17:27:07.305Z,98467.00
2022-09-28T17:29:41.841Z,98466.20
2022-09-28T17:32:20.774Z,98466.60
2022-09-28T17:35:06.553Z,98461.20
2022-09-28T17:37:49.703Z,98466.60
2022-09-28T17:40:29.134Z,98465.60
2022-09-28T17:43:05.834Z,98474.20
2022-09-28T17:45:41.666Z,98476.60
2022-09-28T17:48:19.182Z,98480.00
2022-09-28T17:50:53.647Z,98481.00
2022-09-28T17:53:27.745Z,98486.20
2022-09-28T17:56:04.274Z,98485.00
2022-09-28T17:58:39.362Z,98488.40
2022-09-28T18:01:15.122Z,98490.20
2022-09-28T18:03:52.183Z,98492.80
2022-09-28T18:06:26.936Z,98495.20
2022-09-28T18:09:00.688Z,98498.80
2022-09-28T18:11:41.987Z,98505.60
2022-09-28T18:14:17.586Z,98510.00
2022-09-28T18:16:52.371Z,98514.20
2022-09-28T18:19:32.403Z,98516.20
2022-09-28T18:22:07.617Z,98519.00
2022-09-28T18:24:41.891Z,98521.20
2022-09-28T18:27:15.822Z,98532.40
2022-09-28T18:29:50.366Z,98537.40
2022-09-28T18:32:24.479Z,98543.40
2022-09-28T18:34:59.045Z,98544.40
2022-09-28T18:37:36.459Z,98549.80
2022-09-28T18:40:14.131Z,98554.20
2022-09-28T18:42:48.968Z,98551.80
2022-09-28T18:45:23.506Z,98560.00
2022-09-28T18:47:58.799Z,98560.80
2022-09-28T18:50:33.238Z,98564.20
2022-09-28T18:53:13.382Z,98571.00
2022-09-28T18:55:47.818Z,98576.20
2022-09-28T18:58:21.861Z,98577.20
2022-09-28T19:01:08.666Z,98579.60
2022-09-28T19:03:50.897Z,98584.20
2022-09-28T19:06:28.095Z,98581.20
2022-09-28T19:09:04.186Z,98586.40
2022-09-28T19:11:38.756Z,98586.00
2022-09-28T19:14:15.186Z,98586.00
2022-09-28T19:16:52.717Z,98593.80
2022-09-28T19:19:29.229Z,98594.40
2022-09-28T19:22:03.831Z,98592.00
2022-09-28T19:24:38.381Z,98586.60
2022-09-28T19:27:13.050Z,98594.60
2022-09-28T19:29:47.332Z,98594.60
2022-09-28T19:32:23.076Z,98598.60
2022-09-28T19:34:57.786Z,98593.20
2022-09-28T19:37:35.531Z,98597.20
2022-09-28T19:40:11.639Z,98601.20
2022-09-28T19:42:45.807Z,98607.40
2022-09-28T19:45:20.381Z,98602.80
2022-09-28T19:47:59.235Z,98609.60
2022-09-28T19:50:34.818Z,98607.40
2022-09-28T19:53:09.343Z,98612.80
2022-09-28T19:55:43.605Z,98615.40
2022-09-28T19:58:17.883Z,98617.80
2022-09-28T20:00:54.800Z,98622.60
2022-09-28T20:03:29.224Z,98625.20
2022-09-28T20:06:03.843Z,98628.80
2022-09-28T20:08:40.274Z,98646.00
2022-09-28T20:11:17.027Z,98645.20
2022-09-28T20:13:52.935Z,98653.40
2022-09-28T20:16:27.192Z,98658.80
2022-09-28T20:19:04.038Z,98663.20
2022-09-28T20:21:38.595Z,98663.40
2022-09-28T20:24:16.289Z,98675.40
2022-09-28T20:26:50.713Z,98675.40
2022-09-28T20:29:25.322Z,98678.80
2022-09-28T20:31:59.328Z,98681.60
2022-09-28T20:34:34.490Z,98687.60
2022-09-28T20:37:08.994Z,98688.40
2022-09-28T20:39:45.087Z,98694.00
2022-09-28T20:42:19.277Z,98702.20
2022-09-28T20:44:53.509Z,98703.20
2022-09-28T20:47:27.938Z,98711.20
2022-09-28T20:50:02.585Z,98714.40
2022-09-28T20:52:36.958Z,98714.20
2022-09-28T20:55:12.483Z,98719.80
2022-09-28T20:57:47.556Z,98724.40
2022-09-28T21:00:22.976Z,98727.00
2022-09-28T21:02:58.087Z,98726.60
2022-09-28T21:05:32.118Z,98731.60
2022-09-28T21:08:06.682Z,98737.60
2022-09-28T21:10:44.143Z,98736.60
2022-09-28T21:13:20.277Z,98734.40
2022-09-28T21:15:54.908Z,98743.60
2022-09-28T21:18:29.028Z,98740.80
2022-09-28T21:21:03.441Z,98746.80
2022-09-28T21:23:37.979Z,98742.80
2022-09-28T21:26:15.889Z,98751.40
2022-09-28T21:28:52.548Z,98750.80
2022-09-28T21:31:30.092Z,98751.60
2022-09-28T21:34:04.730Z,98754.80
2022-09-28T21:36:38.459Z,98753.20
2022-09-28T21:39:12.779Z,98757.60
2022-09-28T21:41:47.431Z,98756.60
2022-09-28T21:44:21.737Z,98761.60
2022-09-28T21:46:55.679Z,98768.20
2022-09-28T21:49:29.505Z,98767.00
2022-09-28T21:52:03.670Z,98766.00
2022-09-28T21:54:38.084Z,98763.00
2022-09-28T21:57:12.117Z,98767.40
2022-09-28T21:59:47.555Z,98773.00
2022-09-28T22:02:21.747Z,98771.80
2022-09-28T22:04:55.598Z,98772.20
2022-09-28T22:07:29.741Z,98775.80
2022-09-28T22:10:03.702Z,98778.40
2022-09-28T22:12:37.754Z,98778.40
2022-09-28T22:15:14.113Z,98776.40
2022-09-28T22:17:47.857Z,98782.00
2022-09-28T22:20:21.756Z,98781.40
2022-09-28T22:22:55.679Z,98787.80
2022-09-28T22:25:30.460Z,98782.00
2022-09-28T22:28:05.749Z,98785.60
2022-09-28T22:30:40.370Z,98782.20
2022-09-28T22:33:14.587Z,98786.00
2022-09-28T22:35:49.320Z,98788.00
2022-09-28T22:38:24.520Z,98786.60
2022-09-28T22:40:59.482Z,98781.40
2022-09-28T22:43:34.850Z,98783.60
2022-09-28T22:46:11.445Z,98791.00
2022-09-28T22:48:49.121Z,98792.80
2022-09-28T22:51:23.869Z,98798.00
2022-09-28T22:53:59.378Z,98798.80
2022-09-28T22:56:34.135Z,98802.60
2022-09-28T22:59:08.106Z,98804.00
2022-09-28T23:01:42.391Z,98808.00
2022-09-28T23:04:16.630Z,98808.60
2022-09-28T23:06:50.413Z,98810.60
2022-09-28T23:09:24.159Z,98810.80
2022-09-28T23:11:57.865Z,98815.00
2022-09-28T23:14:32.202Z,98819.00
2022-09-28T23:17:06.417Z,98815.60
2022-09-28T23:19:40.321Z,98822.20
2022-09-28T23:22:14.264Z,98824.20
2022-09-28T23:24:48.191Z,98821.20
2022-09-28T23:27:22.130Z,98816.80
2022-09-28T23:29:56.165Z,98816.80
2022-09-28T23:32:32.125Z,98813.20
2022-09-28T23:35:07.700Z,98805.00
2022-09-28T23:37:41.831Z,98816.20
2022-09-28T23:40:16.109Z,98820.00
2022-09-28T23:42:49.977Z,98818.80
2022-09-28T23:45:23.868Z,98814.80
2022-09-28T23:47:57.782Z,98819.80
2022-09-28T23:50:32.982Z,98824.40
2022-09-28T23:53:06.772Z,98818.40
2022-09-28T23:55:40.516Z,98820.60
2022-09-28T23:58:17.172Z,98814.80
